Time;durP1;ratioP1;P1;durP2;ratioP2;P2;SDS_P1;SDS_P2;PMS_P1;PMS_P2;Temp;Humidity;BMP_temperature;BMP_pressure;BME280_temperature;BME280_humidity;BME280_pressure;Samples;Min_cycle;Max_cycle;Signal;HPM_P1;HPM_P2
2022/12/03 00:00:22;;;;;;;7.28;6.78;;;;;;;-3.04;60.30;102822.30;475522;111;922473;-72
2022/12/03 00:01:25;;;;;;;6.83;6.33;;;;;;;-3.02;60.43;102817.73;475527;111;922379;-71
2022/12/03 00:02:29;;;;;;;7.37;6.78;;;;;;;-3.01;60.39;102824.80;475441;110;922480;-71
2022/12/03 00:03:34;;;;;;;7.13;6.63;;;;;;;-2.99;60.36;102830.95;475494;111;922580;-72
2022/12/03 00:04:37;;;;;;;6.87;6.37;;;;;;;-2.97;60.42;102821.04;475361;111;922458;-72
2022/12/03 00:05:40;;;;;;;7.77;7.11;;;;;;;-2.96;60.33;102825.45;475567;111;922566;-72
2022/12/03 00:06:45;;;;;;;6.82;6.23;;;;;;;-2.96;60.31;102831.65;474458;111;922873;-72
2022/12/03 00:07:48;;;;;;;6.70;6.16;;;;;;;-2.95;60.34;102824.52;475525;110;922441;-72
2022/12/03 00:08:52;;;;;;;7.03;6.44;;;;;;;-2.92;60.33;102826.19;475470;111;922441;-72
2022/12/03 00:09:55;;;;;;;7.39;6.79;;;;;;;-2.90;60.33;102829.63;475569;111;922490;-72
2022/12/03 00:10:58;;;;;;;7.46;6.86;;;;;;;-2.90;60.29;102833.16;475563;111;922588;-72
2022/12/03 00:12:01;;;;;;;7.09;6.49;;;;;;;-2.89;60.18;102836.70;475548;111;922773;-71
2022/12/03 00:13:05;;;;;;;6.81;6.21;;;;;;;-2.89;60.17;102839.38;475518;110;922467;-72
2022/12/03 00:14:08;;;;;;;6.42;5.92;;;;;;;-2.89;60.17;102834.03;475571;111;922541;-71
2022/12/03 00:15:11;;;;;;;6.39;5.89;;;;;;;-2.91;60.22;102836.77;475465;111;922595;-71
2022/12/03 00:16:15;;;;;;;7.45;6.81;;;;;;;-2.91;60.14;102833.23;475446;111;930507;-71
2022/12/03 00:17:18;;;;;;;7.49;6.79;;;;;;;-2.92;60.20;102829.69;475348;110;930493;-71
2022/12/03 00:18:21;;;;;;;6.52;6.01;;;;;;;-2.92;60.25;102832.36;475519;111;922618;-71
2022/12/03 00:19:25;;;;;;;5.94;5.49;;;;;;;-2.90;60.20;102834.97;475584;111;922904;-71
2022/12/03 00:20:28;;;;;;;6.67;6.17;;;;;;;-2.89;60.20;102834.03;475574;111;922741;-71
2022/12/03 00:21:31;;;;;;;7.06;6.53;;;;;;;-2.88;60.22;102831.30;475523;111;922848;-71
2022/12/03 00:22:34;;;;;;;5.85;5.44;;;;;;;-2.87;60.21;102832.16;475555;110;922558;-71
2022/12/03 00:23:37;;;;;;;6.67;6.17;;;;;;;-2.86;60.27;102820.52;475521;111;922965;-71
2022/12/03 00:24:42;;;;;;;6.38;5.88;;;;;;;-2.86;60.25;102831.20;474986;111;922423;-71
2022/12/03 00:25:45;;;;;;;6.63;6.12;;;;;;;-2.86;60.13;102826.73;475533;111;922425;-71
2022/12/03 00:26:48;;;;;;;6.59;5.99;;;;;;;-2.87;60.13;102827.70;475498;111;922495;-72
2022/12/03 00:27:51;;;;;;;6.94;6.37;;;;;;;-2.88;60.16;102833.97;475476;110;922481;-72
2022/12/03 00:28:55;;;;;;;6.67;6.08;;;;;;;-2.88;60.23;102839.30;475561;111;922460;-72
2022/12/03 00:29:58;;;;;;;6.25;5.75;;;;;;;-2.89;60.17;102836.70;475458;111;922470;-72
2022/12/03 00:31:01;;;;;;;5.96;5.46;;;;;;;-2.91;60.27;102827.89;475542;111;922874;-72
2022/12/03 00:32:04;;;;;;;5.61;5.11;;;;;;;-2.91;60.34;102830.56;475545;111;922658;-72
2022/12/03 00:33:07;;;;;;;6.12;5.66;;;;;;;-2.92;60.34;102836.86;475461;110;922601;-72
2022/12/03 00:34:11;;;;;;;6.02;5.52;;;;;;;-2.96;60.27;102826.31;475482;111;930451;-72
2022/12/03 00:35:14;;;;;;;6.15;5.62;;;;;;;-2.96;60.32;102831.65;475480;111;922476;-72
2022/12/03 00:36:17;;;;;;;6.10;5.60;;;;;;;-2.96;60.44;102836.98;475580;111;922414;-72
2022/12/03 00:37:21;;;;;;;6.35;5.85;;;;;;;-2.95;60.49;102833.39;475445;110;922921;-72
2022/12/03 00:38:24;;;;;;;5.60;5.20;;;;;;;-2.95;60.49;102833.39;475497;111;930398;-72
2022/12/03 00:39:27;;;;;;;5.99;5.52;;;;;;;-2.96;60.52;102836.98;475566;111;922880;-71
2022/12/03 00:40:30;;;;;;;5.66;5.26;;;;;;;-2.96;60.55;102836.98;475554;111;922526;-72
2022/12/03 00:41:34;;;;;;;5.85;5.36;;;;;;;-2.96;60.52;102831.65;475543;111;922448;-72
2022/12/03 00:42:37;;;;;;;5.84;5.38;;;;;;;-2.95;60.57;102830.72;475417;110;922445;-73
2022/12/03 00:43:40;;;;;;;6.10;5.65;;;;;;;-2.93;60.71;102835.12;475549;111;922417;-71
2022/12/03 00:44:43;;;;;;;5.18;4.78;;;;;;;-2.92;60.66;102845.70;475554;111;922504;-71
2022/12/03 00:45:46;;;;;;;5.33;4.93;;;;;;;-2.89;60.69;102842.04;475538;111;922415;-70
2022/12/03 00:46:49;;;;;;;5.78;5.34;;;;;;;-2.89;60.75;102834.90;475523;111;923051;-71
2022/12/03 00:47:52;;;;;;;5.06;4.66;;;;;;;-2.87;60.77;102837.50;475536;111;922438;-71
2022/12/03 00:48:55;;;;;;;5.50;5.00;;;;;;;-2.85;60.81;102833.80;475557;111;922729;-71
2022/12/03 00:49:59;;;;;;;4.96;4.56;;;;;;;-2.83;60.78;102831.07;475566;111;922880;-71
2022/12/03 00:51:02;;;;;;;5.41;5.01;;;;;;;-2.80;60.85;102841.59;475578;111;922803;-73
2022/12/03 00:52:05;;;;;;;5.23;4.77;;;;;;;-2.79;60.83;102835.31;475561;111;922827;-71
2022/12/03 00:53:08;;;;;;;4.69;4.22;;;;;;;-2.79;60.72;102841.52;475744;110;922453;-71
2022/12/03 00:54:11;;;;;;;5.17;4.78;;;;;;;-2.79;60.83;102832.64;477189;111;922480;-72
2022/12/03 00:55:14;;;;;;;5.33;4.86;;;;;;;-2.77;60.74;102836.12;477171;111;922747;-72
2022/12/03 00:56:18;;;;;;;4.79;4.37;;;;;;;-2.78;60.79;102831.71;477070;111;922480;-71
2022/12/03 00:57:21;;;;;;;4.76;4.37;;;;;;;-2.78;60.75;102839.72;470913;111;930761;-71
2022/12/03 00:58:24;;;;;;;4.25;3.94;;;;;;;-2.77;60.85;102833.45;465438;114;922566;-72
2022/12/03 00:59:27;;;;;;;5.19;4.79;;;;;;;-2.77;60.85;102836.98;465465;114;923050;-71
2022/12/03 01:00:30;;;;;;;4.96;4.56;;;;;;;-2.75;60.77;102837.76;465468;114;922551;-71
2022/12/03 01:01:33;;;;;;;5.35;4.86;;;;;;;-2.74;60.73;102842.16;465448;114;922979;-71
2022/12/03 01:02:36;;;;;;;4.86;4.52;;;;;;;-2.73;60.71;102837.69;465403;112;922655;-71
2022/12/03 01:03:39;;;;;;;4.37;4.07;;;;;;;-2.72;60.75;102834.09;465505;114;922614;-71
2022/12/03 01:04:42;;;;;;;4.63;4.27;;;;;;;-2.71;60.71;102835.83;465458;114;922535;-71
2022/12/03 01:05:46;;;;;;;4.71;4.35;;;;;;;-2.70;60.86;102838.39;465346;114;922459;-71
2022/12/03 01:06:49;;;;;;;5.09;4.69;;;;;;;-2.66;60.87;102836.47;465393;114;922474;-71
2022/12/03 01:07:53;;;;;;;5.47;5.01;;;;;;;-2.65;60.84;102840.88;465413;112;922401;-71
2022/12/03 01:08:56;;;;;;;4.88;4.49;;;;;;;-2.63;60.70;102841.64;465474;114;922973;-72
2022/12/03 01:09:59;;;;;;;5.78;4.47;;;;;;;-2.64;60.73;102831.89;465479;114;922615;-72
2022/12/03 01:11:02;;;;;;;5.05;4.65;;;;;;;-2.64;60.73;102842.58;465461;114;922628;-72
2022/12/03 01:12:06;;;;;;;5.03;4.63;;;;;;;-2.63;60.77;102837.17;465443;114;922570;-72
2022/12/03 01:13:09;;;;;;;4.66;4.26;;;;;;;-2.62;60.80;102840.70;465457;112;923080;-72
2022/12/03 01:14:15;;;;;;;4.70;4.32;;;;;;;-2.62;60.68;102848.72;465342;114;922435;-72
2022/12/03 01:15:19;;;;;;;4.74;4.36;;;;;;;-2.62;60.77;102846.05;465176;114;930515;-72
2022/12/03 01:16:22;;;;;;;5.06;4.66;;;;;;;-2.63;60.77;102836.30;465353;114;922898;-71
2022/12/03 01:17:25;;;;;;;5.12;4.19;;;;;;;-2.64;60.70;102859.46;465372;112;922760;-72
2022/12/03 01:18:28;;;;;;;4.72;4.32;;;;;;;-2.63;60.77;102850.52;465458;114;922496;-71
2022/12/03 01:19:33;;;;;;;5.41;4.58;;;;;;;-2.63;60.77;102844.31;465443;114;922484;-71
2022/12/03 01:20:37;;;;;;;5.31;4.87;;;;;;;-2.63;60.73;102850.52;465234;114;922566;-72
2022/12/03 01:21:41;;;;;;;4.84;4.50;;;;;;;-2.63;60.66;102850.52;465367;114;922666;-71
2022/12/03 01:22:44;;;;;;;5.12;4.72;;;;;;;-2.62;60.79;102859.40;465190;112;930604;-72
2022/12/03 01:23:48;;;;;;;6.88;5.08;;;;;;;-2.60;60.79;102857.53;465357;114;922568;-72
2022/12/03 01:24:51;;;;;;;5.13;4.44;;;;;;;-2.59;60.77;102856.59;465343;114;930460;-71
2022/12/03 01:25:55;;;;;;;5.19;4.72;;;;;;;-2.57;60.67;102852.02;465361;114;922440;-72
2022/12/03 01:26:59;;;;;;;4.92;4.51;;;;;;;-2.57;60.67;102852.02;465386;114;922839;-71
2022/12/03 01:28:02;;;;;;;4.58;4.18;;;;;;;-2.57;60.69;102858.23;465307;112;923692;-72
2022/12/03 01:29:06;;;;;;;5.16;4.73;;;;;;;-2.56;60.62;102853.77;465448;114;922827;-72
2022/12/03 01:30:11;;;;;;;5.08;4.64;;;;;;;-2.56;60.61;102853.77;465456;114;922528;-72
2022/12/03 01:32:36;;;;;;;3.94;3.57;;;;;;;-2.56;60.65;102864.45;465231;112;922656;-72
2022/12/03 01:33:39;;;;;;;3.86;3.56;;;;;;;-2.58;60.65;102864.52;465469;114;922556;-71
2022/12/03 01:34:47;;;;;;;4.88;3.35;;;;;;;-2.58;60.63;102868.98;465482;114;922547;-72
2022/12/03 01:35:50;;;;;;;2.95;2.74;;;;;;;-2.58;60.69;102858.30;465291;114;922507;-72
2022/12/03 01:36:53;;;;;;;3.42;3.12;;;;;;;-2.59;60.63;102865.45;465439;114;922980;-71
2022/12/03 01:37:56;;;;;;;3.59;3.29;;;;;;;-2.59;60.59;102872.62;465402;112;922574;-72
2022/12/03 01:39:01;;;;;;;2.99;2.79;;;;;;;-2.59;60.59;102867.28;458810;113;922743;-72
2022/12/03 01:40:07;;;;;;;3.67;3.18;;;;;;;-2.59;60.58;102878.80;457641;116;922615;-72
2022/12/03 01:41:10;;;;;;;3.11;2.82;;;;;;;-2.58;60.71;102864.52;457588;116;922861;-71
2022/12/03 01:42:17;;;;;;;3.31;2.91;;;;;;;-2.57;60.69;102862.70;457675;116;923111;-71
2022/12/03 01:43:28;;;;;;;3.17;2.91;;;;;;;-2.45;60.61;102869.26;475166;110;946859;-71
2022/12/03 01:44:33;;;;;;;3.02;2.81;;;;;;;-2.56;60.56;102864.45;465687;114;922543;-72
2022/12/03 01:45:37;;;;;;;2.76;2.56;;;;;;;-2.56;60.58;102867.98;465535;114;922611;-71
2022/12/03 01:46:41;;;;;;;3.04;2.83;;;;;;;-2.56;60.59;102867.98;465706;114;922757;-71
2022/12/03 01:47:44;;;;;;;4.08;3.71;;;;;;;-2.54;60.61;102871.42;464576;112;922684;-72
2022/12/03 01:48:51;;;;;;;3.92;3.62;;;;;;;-2.52;60.63;102871.36;463335;114;922479;-72
2022/12/03 01:50:09;;;;;;;3.75;3.45;;;;;;;-2.50;60.65;102868.62;463146;114;923024;-72
2022/12/03 01:51:13;;;;;;;3.97;3.67;;;;;;;-2.47;60.61;102876.47;462324;114;922740;-73
2022/12/03 01:52:20;;;;;;;3.98;3.68;;;;;;;-2.47;60.51;102871.13;463247;114;922674;-73
2022/12/03 01:53:23;;;;;;;4.24;3.33;;;;;;;-2.47;60.49;102880.02;463204;112;923427;-73
2022/12/03 01:54:30;;;;;;;3.67;3.37;;;;;;;-2.45;60.55;102879.94;463321;114;922357;-72
2022/12/03 01:55:33;;;;;;;3.68;3.38;;;;;;;-2.47;60.59;102877.34;461943;114;922499;-72
2022/12/03 01:56:36;;;;;;;3.86;3.56;;;;;;;-2.45;60.61;102883.48;463340;114;922489;-72
2022/12/03 01:57:46;;;;;;;3.72;3.42;;;;;;;-2.43;60.58;102875.41;463292;112;922534;-72
2022/12/03 01:58:49;;;;;;;3.69;3.39;;;;;;;-2.42;60.54;102877.11;463146;114;922524;-72
2022/12/03 01:59:55;;;;;;;3.45;3.23;;;;;;;-2.42;60.61;102880.65;463345;114;922524;-72
2022/12/03 02:01:04;;;;;;;3.49;3.22;;;;;;;-2.43;60.59;102868.26;463160;114;922522;-70
2022/12/03 02:02:26;;;;;;;3.46;3.16;;;;;;;-2.41;60.62;102871.70;463160;114;922423;-70
2022/12/03 02:03:29;;;;;;;3.54;3.24;;;;;;;-2.41;60.55;102874.37;463231;112;922459;-72
2022/12/03 02:04:33;;;;;;;3.42;3.12;;;;;;;-2.41;60.63;102866.36;463332;114;922949;-72
2022/12/03 02:05:36;;;;;;;3.89;3.09;;;;;;;-2.40;60.67;102872.57;463248;114;922555;-72
2022/12/03 02:06:41;;;;;;;3.54;3.24;;;;;;;-2.42;60.59;102867.30;463183;114;930597;-72
2022/12/03 02:07:45;;;;;;;2.83;2.56;;;;;;;-2.42;60.67;102866.42;463485;112;922640;-72
2022/12/03 02:08:48;;;;;;;4.63;3.06;;;;;;;-2.43;60.59;102862.92;471552;112;922510;-72
2022/12/03 02:09:53;;;;;;;3.21;2.91;;;;;;;-2.43;60.60;102862.05;471449;112;930439;-72
2022/12/03 02:11:00;;;;;;;3.41;3.09;;;;;;;-2.45;60.56;102870.13;471309;112;930631;-72
2022/12/03 02:12:04;;;;;;;3.16;2.86;;;;;;;-2.45;60.57;102872.80;470761;112;922536;-71
2022/12/03 02:13:09;;;;;;;3.44;2.91;;;;;;;-2.45;60.54;102874.60;467581;112;922740;-72
2022/12/03 02:14:15;;;;;;;6.70;3.54;;;;;;;-2.47;60.58;102872.00;463155;114;923050;-72
2022/12/03 02:15:18;;;;;;;3.24;2.91;;;;;;;-2.48;60.54;102862.25;462813;114;930508;-72
2022/12/03 02:16:22;;;;;;;3.50;2.97;;;;;;;-2.49;60.58;102876.56;463259;114;922591;-72
2022/12/03 02:17:26;;;;;;;3.52;3.22;;;;;;;-2.50;60.61;102874.83;463264;114;922657;-70
2022/12/03 02:18:30;;;;;;;3.02;2.52;;;;;;;-2.52;60.54;102874.90;463510;112;930484;-72
2022/12/03 02:19:33;;;;;;;3.01;2.73;;;;;;;-2.52;60.59;102872.23;463392;114;922536;-72
2022/12/03 02:20:43;;;;;;;2.87;2.67;;;;;;;-2.52;60.62;102874.03;454196;116;922481;-72
2022/12/03 02:21:58;;;;;;;3.06;2.78;;;;;;;-2.53;60.63;102874.97;455297;114;922695;-73
2022/12/03 02:23:08;;;;;;;3.02;2.82;;;;;;;-2.54;60.59;102887.45;464905;112;922671;-72
2022/12/03 02:24:30;;;;;;;3.52;3.21;;;;;;;-2.55;60.68;102879.53;470966;112;922506;-71
2022/12/03 02:25:34;;;;;;;3.06;2.86;;;;;;;-2.56;60.63;102875.13;470618;112;922553;-72
2022/12/03 02:26:38;;;;;;;3.03;2.76;;;;;;;-2.59;60.64;102884.14;471473;112;922972;-72
2022/12/03 02:27:42;;;;;;;3.05;2.75;;;;;;;-2.60;60.71;102876.23;471136;112;922477;-72
2022/12/03 02:28:45;;;;;;;3.16;2.88;;;;;;;-2.62;60.73;102873.62;463268;114;922666;-72
2022/12/03 02:29:48;;;;;;;3.45;3.15;;;;;;;-2.62;60.82;102876.29;463350;114;922455;-72
2022/12/03 02:30:51;;;;;;;3.69;3.38;;;;;;;-2.62;60.86;102891.45;463333;114;922514;-72
2022/12/03 02:31:55;;;;;;;3.22;2.69;;;;;;;-2.63;60.89;102877.22;463433;114;922481;-72
2022/12/03 02:33:00;;;;;;;3.26;2.99;;;;;;;-2.62;60.92;102883.44;463279;112;922438;-72
2022/12/03 02:34:07;;;;;;;3.09;2.81;;;;;;;-2.63;60.94;102887.91;463207;114;922435;-72
2022/12/03 02:35:19;;;;;;;2.78;2.58;;;;;;;-2.61;61.04;102886.04;463173;114;922445;-72
2022/12/03 02:36:22;;;;;;;2.99;2.56;;;;;;;-2.60;60.97;102894.92;463005;114;922464;-72
2022/12/03 02:37:35;;;;;;;2.89;2.68;;;;;;;-2.59;61.04;102891.31;463257;114;922861;-72
2022/12/03 02:38:40;;;;;;;2.87;2.53;;;;;;;-2.59;61.04;102891.31;470812;112;922522;-72
2022/12/03 02:39:48;;;;;;;2.62;2.39;;;;;;;-2.58;61.10;102890.34;471419;112;922810;-72
2022/12/03 02:41:01;;;;;;;2.95;2.69;;;;;;;-2.58;61.04;102898.36;471463;112;922556;-72
2022/12/03 02:43:27;;;;;;;3.04;2.73;;;;;;;-2.55;61.15;102901.77;461918;112;922607;-71
2022/12/03 02:44:30;;;;;;;3.08;2.74;;;;;;;-2.53;61.25;102896.33;458190;116;922635;-72
2022/12/03 02:45:36;;;;;;;3.02;2.80;;;;;;;-2.53;61.27;102896.33;458226;116;930538;-72
2022/12/03 02:46:40;;;;;;;2.88;2.68;;;;;;;-2.50;61.30;102892.66;458083;116;922506;-72
2022/12/03 02:47:47;;;;;;;3.00;2.75;;;;;;;-2.48;61.30;102898.80;458013;114;922647;-72
2022/12/03 02:48:50;;;;;;;2.79;2.54;;;;;;;-2.47;61.34;102904.05;455593;116;930306;-71
2022/12/03 02:49:53;;;;;;;3.17;2.71;;;;;;;-2.46;61.20;102896.91;455774;116;922572;-72
2022/12/03 02:51:00;;;;;;;2.73;2.53;;;;;;;-2.45;61.27;102896.84;455766;116;922752;-72
2022/12/03 02:52:03;;;;;;;2.85;2.65;;;;;;;-2.45;61.23;102895.97;455705;116;922580;-72
2022/12/03 02:53:09;;;;;;;3.12;2.62;;;;;;;-2.44;61.22;102895.03;455908;114;922515;-72
2022/12/03 02:54:13;;;;;;;2.71;2.29;;;;;;;-2.43;61.31;102905.66;455601;116;922560;-72
2022/12/03 02:55:17;;;;;;;3.14;2.77;;;;;;;-2.44;61.18;102906.59;455749;116;922876;-72
2022/12/03 02:56:23;;;;;;;3.17;2.86;;;;;;;-2.45;61.33;102901.31;455684;116;922517;-72
2022/12/03 02:57:27;;;;;;;2.89;2.65;;;;;;;-2.45;61.37;102909.33;459451;114;922471;-72
2022/12/03 02:58:32;;;;;;;3.14;2.86;;;;;;;-2.45;61.41;102902.19;456540;114;922502;-72
2022/12/03 02:59:36;;;;;;;3.16;2.89;;;;;;;-2.44;61.37;102900.38;455554;116;922590;-71
2022/12/03 03:00:41;;;;;;;2.67;2.47;;;;;;;-2.43;61.49;102902.98;455764;116;922502;-72
2022/12/03 03:01:44;;;;;;;2.83;2.48;;;;;;;-2.42;61.46;102904.69;455567;116;922475;-72
2022/12/03 03:02:49;;;;;;;2.51;2.31;;;;;;;-2.40;61.52;102905.49;455690;114;922654;-71
2022/12/03 03:03:53;;;;;;;2.91;2.71;;;;;;;-2.37;61.59;102905.33;455583;116;922533;-71
2022/12/03 03:04:58;;;;;;;2.70;2.43;;;;;;;-2.36;61.51;102901.72;455555;116;922421;-72
2022/12/03 03:06:04;;;;;;;2.46;2.26;;;;;;;-2.35;61.53;102903.45;455671;116;923018;-71
2022/12/03 03:07:08;;;;;;;3.20;2.85;;;;;;;-2.34;61.53;102904.33;455540;116;922792;-71
2022/12/03 03:08:12;;;;;;;2.62;2.42;;;;;;;-2.33;61.50;102903.39;455787;114;922585;-71
2022/12/03 03:09:15;;;;;;;2.87;2.64;;;;;;;-2.34;61.55;102899.86;455656;116;923001;-71
2022/12/03 03:10:22;;;;;;;2.89;2.69;;;;;;;-2.34;61.65;102902.53;455671;116;923106;-71
2022/12/03 03:11:25;;;;;;;2.93;2.73;;;;;;;-2.34;61.66;102904.33;455569;116;922664;-71
2022/12/03 03:12:28;;;;;;;3.92;2.75;;;;;;;-2.33;61.69;102898.05;455680;116;922665;-71
2022/12/03 03:13:34;;;;;;;2.96;2.73;;;;;;;-2.31;61.65;102906.84;462231;114;922518;-71
2022/12/03 03:14:37;;;;;;;3.30;2.95;;;;;;;-2.30;61.71;102904.09;463550;114;922711;-71
2022/12/03 03:15:41;;;;;;;2.80;2.60;;;;;;;-2.27;61.83;102897.75;463742;114;922459;-71
2022/12/03 03:16:51;;;;;;;3.11;2.38;;;;;;;-2.26;61.82;102900.33;463669;114;930480;-71
2022/12/03 03:17:50;;;;;;;3.07;2.87;;;;;;;-2.25;61.80;102907.41;462226;114;922520;-72
2022/12/03 03:18:53;;;;;;;2.89;2.65;;;;;;;-2.24;61.73;102903.80;463707;114;922573;-72
2022/12/03 03:19:56;;;;;;;2.52;2.38;;;;;;;-2.23;61.71;102907.34;463804;114;923079;-72
2022/12/03 03:21:00;;;;;;;2.53;2.33;;;;;;;-2.22;61.83;102909.08;463873;114;922575;-71
2022/12/03 03:22:03;;;;;;;2.89;2.54;;;;;;;-2.23;61.90;102910.88;463751;114;922910;-72
2022/12/03 03:23:12;;;;;;;2.76;2.56;;;;;;;-2.22;61.80;102919.77;463038;114;923186;-72
2022/12/03 03:24:15;;;;;;;2.63;2.43;;;;;;;-2.23;61.83;102918.89;463645;114;922433;-72
2022/12/03 03:25:23;;;;;;;3.52;2.70;;;;;;;-2.22;62.00;102907.27;463829;114;922542;-72
2022/12/03 03:26:27;;;;;;;2.54;2.34;;;;;;;-2.21;61.96;102919.70;463615;114;922551;-73
2022/12/03 03:27:31;;;;;;;2.74;2.54;;;;;;;-2.21;62.02;102916.16;463810;114;922555;-72
2022/12/03 03:28:38;;;;;;;3.39;3.05;;;;;;;-2.21;62.02;102913.48;462806;114;922450;-71
2022/12/03 03:29:41;;;;;;;3.04;2.82;;;;;;;-2.21;61.99;102919.70;463640;114;922872;-72
2022/12/03 03:30:46;;;;;;;2.42;2.24;;;;;;;-2.20;62.01;102912.52;463763;114;922650;-71
2022/12/03 03:31:49;;;;;;;3.14;2.91;;;;;;;-2.19;62.10;102920.47;463731;114;922480;-72
2022/12/03 03:32:52;;;;;;;3.51;3.21;;;;;;;-2.17;62.13;102915.05;461697;114;930400;-72
2022/12/03 03:33:55;;;;;;;2.83;2.42;;;;;;;-2.17;62.23;102921.27;455734;116;922522;-72
2022/12/03 03:34:59;;;;;;;3.48;2.76;;;;;;;-2.14;62.26;102917.56;455659;116;922551;-71
2022/12/03 03:36:02;;;;;;;2.67;2.47;;;;;;;-2.13;62.16;102922.84;455781;116;922554;-72
2022/12/03 03:37:05;;;;;;;3.24;2.79;;;;;;;-2.13;62.22;102917.50;455632;116;922903;-72
2022/12/03 03:38:09;;;;;;;3.14;2.81;;;;;;;-2.12;62.21;102924.58;458951;114;930558;-72
2022/12/03 03:39:13;;;;;;;2.83;2.56;;;;;;;-2.11;62.27;102920.10;463696;114;922913;-72
2022/12/03 03:40:16;;;;;;;3.25;2.95;;;;;;;-2.11;62.11;102917.42;463652;114;930373;-73
2022/12/03 03:41:20;;;;;;;4.44;2.91;;;;;;;-2.11;62.12;102912.95;463725;114;922937;-72
2022/12/03 03:42:24;;;;;;;3.05;2.84;;;;;;;-2.12;62.15;102916.56;463688;114;922514;-72
2022/12/03 03:43:29;;;;;;;3.19;2.88;;;;;;;-2.13;62.23;102919.30;457181;114;922539;-72
2022/12/03 03:44:32;;;;;;;2.86;2.60;;;;;;;-2.12;62.25;102918.36;463058;114;922512;-73
2022/12/03 03:45:36;;;;;;;3.43;3.04;;;;;;;-2.11;62.29;102920.97;463229;114;922937;-72
2022/12/03 03:46:39;;;;;;;3.20;2.95;;;;;;;-2.11;62.22;102923.64;463250;114;922471;-72
2022/12/03 03:47:43;;;;;;;2.86;2.66;;;;;;;-2.09;62.29;102926.22;463230;112;922811;-72
2022/12/03 03:48:47;;;;;;;2.61;2.42;;;;;;;-2.08;62.22;102921.73;463071;114;930342;-72
2022/12/03 03:49:51;;;;;;;2.66;2.42;;;;;;;-2.08;62.25;102927.95;463039;114;930312;-72
2022/12/03 03:50:55;;;;;;;2.96;2.76;;;;;;;-2.07;62.23;102923.47;463172;114;922809;-72
2022/12/03 03:51:59;;;;;;;2.93;2.64;;;;;;;-2.06;62.31;102926.08;463173;114;922445;-72
2022/12/03 03:53:03;;;;;;;2.79;2.59;;;;;;;-2.05;62.32;102927.81;466255;112;922514;-71
2022/12/03 03:54:07;;;;;;;2.67;2.47;;;;;;;-2.02;62.33;102926.78;471332;112;922850;-72
2022/12/03 03:55:11;;;;;;;2.87;2.37;;;;;;;-2.02;62.41;102924.11;471429;112;922460;-71
2022/12/03 03:56:16;;;;;;;2.53;2.33;;;;;;;-2.00;62.33;102920.43;471408;112;930594;-71
2022/12/03 03:57:19;;;;;;;2.43;2.23;;;;;;;-1.99;62.35;102926.65;467178;112;922532;-71
2022/12/03 03:58:22;;;;;;;2.47;2.27;;;;;;;-1.98;62.33;102923.88;463356;112;922851;-71
2022/12/03 03:59:25;;;;;;;2.76;2.56;;;;;;;-1.98;62.43;102928.35;463314;114;922575;-72
2022/12/03 04:00:30;;;;;;;3.20;2.75;;;;;;;-1.98;62.39;102929.22;463291;114;922620;-72
2022/12/03 04:01:33;;;;;;;2.60;2.40;;;;;;;-1.96;62.47;102937.17;463128;114;922406;-72
2022/12/03 04:02:37;;;;;;;2.85;2.64;;;;;;;-1.96;62.43;102934.50;463260;112;922455;-71
2022/12/03 04:03:40;;;;;;;2.69;2.49;;;;;;;-1.96;62.41;102935.37;471399;112;922464;-72
2022/12/03 04:04:43;;;;;;;2.52;2.33;;;;;;;-1.96;62.41;102935.37;471362;112;930313;-72
2022/12/03 04:05:49;;;;;;;2.75;2.51;;;;;;;-1.96;62.34;102938.04;471518;112;922501;-72
2022/12/03 04:06:52;;;;;;;2.11;1.94;;;;;;;-1.97;62.33;102938.11;471339;112;922862;-72
2022/12/03 04:07:55;;;;;;;2.37;2.17;;;;;;;-1.97;62.41;102935.44;469297;112;922534;-71
2022/12/03 04:08:58;;;;;;;2.34;2.13;;;;;;;-1.99;62.41;102938.21;463212;114;922821;-71
2022/12/03 04:12:54;;;;;;;3.76;2.09;;;;;;;-1.98;62.48;102939.05;463233;114;922633;-71
2022/12/03 04:13:50;;;;;;;2.39;2.19;;;;;;;-1.99;62.55;102938.21;463013;114;922975;-72
2022/12/03 04:14:53;;;;;;;2.41;2.21;;;;;;;-2.00;62.55;102941.81;463255;114;922560;-72
2022/12/03 04:15:56;;;;;;;2.39;2.19;;;;;;;-2.00;62.61;102941.81;463193;114;922821;-72
2022/12/03 04:17:00;;;;;;;2.38;2.18;;;;;;;-2.00;62.59;102941.81;463153;114;922557;-72
2022/12/03 04:19:24;;;;;;;3.03;2.53;;;;;;;-2.02;62.59;102949.03;463014;114;922505;-71
2022/12/03 04:20:28;;;;;;;2.86;2.57;;;;;;;-2.05;62.50;102943.86;463218;114;922535;-71
2022/12/03 04:22:52;;;;;;;3.08;2.61;;;;;;;-2.03;62.58;102954.45;464265;112;923071;-72
2022/12/03 04:23:56;;;;;;;4.94;2.54;;;;;;;-2.04;62.57;102950.07;471474;112;922580;-72
2022/12/03 04:29:03;;;;;;;4.06;2.99;;;;;;;-2.02;62.71;102958.86;449584;118;922560;-71
2022/12/03 04:30:07;;;;;;;2.76;2.56;;;;;;;-2.02;62.84;102962.40;449748;117;922792;-72
2022/12/03 04:36:36;;;;;;;2.80;2.60;;;;;;;-1.95;62.98;102963.84;449598;118;923110;-72
2022/12/03 04:37:39;;;;;;;3.34;3.05;;;;;;;-1.92;62.97;102960.12;450060;116;922453;-71
2022/12/03 04:38:43;;;;;;;3.16;2.93;;;;;;;-1.92;63.04;102962.80;457581;116;922937;-72
2022/12/03 04:39:46;;;;;;;3.32;2.85;;;;;;;-1.91;63.02;102968.08;457620;116;922467;-71
2022/12/03 04:41:02;;;;;;;3.16;2.84;;;;;;;-1.90;62.97;102967.15;457618;116;923050;-71
2022/12/03 04:42:06;;;;;;;2.78;2.58;;;;;;;-1.88;62.91;102973.30;457469;116;922489;-71
2022/12/03 04:43:09;;;;;;;3.21;2.78;;;;;;;-1.88;62.89;102969.75;457334;114;922501;-71
2022/12/03 04:45:24;;;;;;;3.12;2.87;;;;;;;-1.73;63.04;102971.65;477237;110;1194867;-72
2022/12/03 04:46:27;;;;;;;3.10;2.90;;;;;;;-1.82;62.98;102964.94;473974;112;930289;-72
2022/12/03 04:47:31;;;;;;;2.61;2.41;;;;;;;-1.77;62.88;102978.11;471889;112;922428;-72
2022/12/03 04:48:36;;;;;;;2.69;2.49;;;;;;;-1.75;62.79;102974.39;464718;114;922927;-72
2022/12/03 04:49:42;;;;;;;5.89;3.14;;;;;;;-1.75;62.73;102973.52;465681;114;922790;-71
2022/12/03 04:50:45;;;;;;;2.79;2.59;;;;;;;-1.75;62.78;102979.74;465508;114;923016;-72
2022/12/03 04:51:48;;;;;;;3.19;2.91;;;;;;;-1.77;62.73;102980.78;465676;114;923020;-72
2022/12/03 04:52:51;;;;;;;2.98;2.72;;;;;;;-1.77;62.79;102983.45;464956;114;923378;-72
2022/12/03 04:53:54;;;;;;;2.91;2.71;;;;;;;-1.79;62.72;102986.20;465727;114;922479;-72
2022/12/03 04:54:58;;;;;;;2.73;2.55;;;;;;;-1.81;62.82;102980.05;465678;114;922446;-71
2022/12/03 04:56:01;;;;;;;3.18;2.98;;;;;;;-1.82;62.82;102977.47;465671;114;922390;-72
2022/12/03 04:57:04;;;;;;;3.45;3.11;;;;;;;-1.84;62.91;102988.23;465656;112;922830;-73
2022/12/03 04:58:07;;;;;;;3.42;2.95;;;;;;;-1.84;63.02;102982.02;464872;114;922606;-70
2022/12/03 04:59:10;;;;;;;3.26;3.06;;;;;;;-1.84;63.02;102982.02;465634;114;930545;-70
2022/12/03 05:00:16;;;;;;;3.21;3.01;;;;;;;-1.83;63.00;102983.76;465049;114;922608;-72
2022/12/03 05:01:19;;;;;;;3.26;3.04;;;;;;;-1.85;63.07;102975.80;465641;114;923073;-71
2022/12/03 05:02:22;;;;;;;3.16;2.86;;;;;;;-1.84;63.12;102987.36;465603;114;922518;-71
2022/12/03 05:03:25;;;;;;;3.32;3.02;;;;;;;-1.84;63.08;102987.36;465296;114;922524;-72
2022/12/03 05:04:29;;;;;;;3.56;3.26;;;;;;;-1.84;63.22;102987.36;465652;114;922558;-72
2022/12/03 05:05:32;;;;;;;2.99;2.68;;;;;;;-1.83;63.15;102986.43;465692;114;922735;-72
2022/12/03 05:06:35;;;;;;;3.07;2.84;;;;;;;-1.81;63.22;102989.88;465597;114;922980;-72
2022/12/03 05:07:38;;;;;;;3.63;3.41;;;;;;;-1.81;63.24;102988.06;465432;114;922494;-72
2022/12/03 05:08:41;;;;;;;4.66;3.11;;;;;;;-1.80;63.35;102991.61;465411;114;922513;-72
2022/12/03 05:09:44;;;;;;;3.22;3.00;;;;;;;-1.80;63.26;102988.94;465635;114;922715;-72
2022/12/03 05:10:47;;;;;;;3.06;2.86;;;;;;;-1.80;63.38;102996.96;465672;114;922852;-72
2022/12/03 05:11:51;;;;;;;3.25;3.01;;;;;;;-1.81;63.29;102995.22;465675;114;922721;-71
2022/12/03 05:12:54;;;;;;;2.96;2.76;;;;;;;-1.82;63.36;102991.68;465446;114;922657;-71
2022/12/03 05:13:57;;;;;;;3.19;2.99;;;;;;;-1.83;63.30;102994.45;465666;114;922504;-73